sensor_id;sensor_type;location;lat;lon;timestamp;P1;durP1;ratioP1;P2;durP2;ratioP2
57241;SDS011;43095;53.302;5.786;2023-02-23T00:01:37;115.45;;;49.50;;
57241;SDS011;43095;53.302;5.786;2023-02-23T00:07:59;112.90;;;49.97;;
57241;SDS011;43095;53.302;5.786;2023-02-23T00:11:17;124.05;;;52.72;;
57241;SDS011;43095;53.302;5.786;2023-02-23T00:14:26;128.57;;;51.83;;
57241;SDS011;43095;53.302;5.786;2023-02-23T00:17:05;136.20;;;53.55;;
57241;SDS011;43095;53.302;5.786;2023-02-23T00:20:22;127.75;;;53.08;;
57241;SDS011;43095;53.302;5.786;2023-02-23T00:23:02;130.75;;;54.42;;
57241;SDS011;43095;53.302;5.786;2023-02-23T00:25:47;133.27;;;55.05;;
57241;SDS011;43095;53.302;5.786;2023-02-23T00:28:51;127.72;;;52.03;;
57241;SDS011;43095;53.302;5.786;2023-02-23T00:34:56;136.38;;;51.90;;
57241;SDS011;43095;53.302;5.786;2023-02-23T00:37:30;138.65;;;56.25;;
57241;SDS011;43095;53.302;5.786;2023-02-23T00:40:42;123.18;;;51.05;;
57241;SDS011;43095;53.302;5.786;2023-02-23T00:50:58;134.85;;;52.97;;
57241;SDS011;43095;53.302;5.786;2023-02-23T00:53:45;130.13;;;53.25;;
57241;SDS011;43095;53.302;5.786;2023-02-23T00:56:31;134.43;;;54.60;;
57241;SDS011;43095;53.302;5.786;2023-02-23T00:59:26;136.18;;;55.63;;
57241;SDS011;43095;53.302;5.786;2023-02-23T01:02:17;133.70;;;52.53;;
57241;SDS011;43095;53.302;5.786;2023-02-23T01:05:41;125.10;;;51.80;;
57241;SDS011;43095;53.302;5.786;2023-02-23T01:08:22;130.90;;;51.67;;
57241;SDS011;43095;53.302;5.786;2023-02-23T01:11:33;131.85;;;52.10;;
57241;SDS011;43095;53.302;5.786;2023-02-23T01:14:13;125.57;;;52.00;;
57241;SDS011;43095;53.302;5.786;2023-02-23T01:16:51;131.77;;;49.95;;
57241;SDS011;43095;53.302;5.786;2023-02-23T01:19:24;138.05;;;52.65;;
57241;SDS011;43095;53.302;5.786;2023-02-23T01:22:30;129.98;;;51.47;;
57241;SDS011;43095;53.302;5.786;2023-02-23T01:25:32;131.70;;;51.13;;
57241;SDS011;43095;53.302;5.786;2023-02-23T01:29:27;114.90;;;48.03;;
57241;SDS011;43095;53.302;5.786;2023-02-23T01:32:23;118.78;;;48.25;;
57241;SDS011;43095;53.302;5.786;2023-02-23T01:35:49;115.38;;;48.15;;
57241;SDS011;43095;53.302;5.786;2023-02-23T01:38:21;109.90;;;44.92;;
57241;SDS011;43095;53.302;5.786;2023-02-23T01:41:37;115.60;;;46.75;;
57241;SDS011;43095;53.302;5.786;2023-02-23T01:47:23;113.18;;;46.47;;
57241;SDS011;43095;53.302;5.786;2023-02-23T01:54:14;117.93;;;47.08;;
57241;SDS011;43095;53.302;5.786;2023-02-23T01:56:54;99.10;;;45.10;;
57241;SDS011;43095;53.302;5.786;2023-02-23T01:59:43;107.18;;;45.33;;
57241;SDS011;43095;53.302;5.786;2023-02-23T02:03:14;99.32;;;44.03;;
57241;SDS011;43095;53.302;5.786;2023-02-23T02:05:51;94.95;;;41.17;;
57241;SDS011;43095;53.302;5.786;2023-02-23T02:08:34;99.57;;;42.93;;
57241;SDS011;43095;53.302;5.786;2023-02-23T02:11:32;95.18;;;43.33;;
57241;SDS011;43095;53.302;5.786;2023-02-23T02:14:16;93.95;;;42.22;;
57241;SDS011;43095;53.302;5.786;2023-02-23T02:17:05;97.85;;;44.42;;
57241;SDS011;43095;53.302;5.786;2023-02-23T02:23:30;91.78;;;41.65;;
57241;SDS011;43095;53.302;5.786;2023-02-23T02:52:30;93.78;;;44.03;;
57241;SDS011;43095;53.302;5.786;2023-02-23T02:55:33;95.53;;;41.42;;
57241;SDS011;43095;53.302;5.786;2023-02-23T02:58:17;89.68;;;40.33;;
57241;SDS011;43095;53.302;5.786;2023-02-23T03:01:13;87.88;;;40.15;;
57241;SDS011;43095;53.302;5.786;2023-02-23T03:04:33;90.50;;;40.90;;
57241;SDS011;43095;53.302;5.786;2023-02-23T03:11:58;87.60;;;38.72;;
57241;SDS011;43095;53.302;5.786;2023-02-23T03:18:43;85.07;;;37.60;;
57241;SDS011;43095;53.302;5.786;2023-02-23T03:22:25;84.57;;;37.00;;
57241;SDS011;43095;53.302;5.786;2023-02-23T03:40:37;100.63;;;42.22;;
57241;SDS011;43095;53.302;5.786;2023-02-23T03:47:44;79.65;;;36.45;;
57241;SDS011;43095;53.302;5.786;2023-02-23T03:50:40;85.18;;;37.00;;
57241;SDS011;43095;53.302;5.786;2023-02-23T03:54:15;81.85;;;38.72;;
57241;SDS011;43095;53.302;5.786;2023-02-23T03:57:38;93.15;;;41.13;;
57241;SDS011;43095;53.302;5.786;2023-02-23T04:00:38;94.93;;;39.95;;
57241;SDS011;43095;53.302;5.786;2023-02-23T04:03:39;91.43;;;40.85;;
57241;SDS011;43095;53.302;5.786;2023-02-23T04:06:44;93.47;;;39.35;;
57241;SDS011;43095;53.302;5.786;2023-02-23T04:10:07;94.88;;;41.55;;
57241;SDS011;43095;53.302;5.786;2023-02-23T04:16:54;87.50;;;37.60;;
57241;SDS011;43095;53.302;5.786;2023-02-23T04:19:47;67.65;;;32.30;;
57241;SDS011;43095;53.302;5.786;2023-02-23T04:22:44;55.40;;;29.33;;
57241;SDS011;43095;53.302;5.786;2023-02-23T04:25:32;58.22;;;28.15;;
57241;SDS011;43095;53.302;5.786;2023-02-23T04:28:25;57.03;;;27.13;;
57241;SDS011;43095;53.302;5.786;2023-02-23T04:31:39;49.72;;;26.45;;
57241;SDS011;43095;53.302;5.786;2023-02-23T04:34:53;51.45;;;27.30;;
57241;SDS011;43095;53.302;5.786;2023-02-23T04:37:27;52.10;;;25.55;;
57241;SDS011;43095;53.302;5.786;2023-02-23T04:40:19;50.58;;;27.00;;
57241;SDS011;43095;53.302;5.786;2023-02-23T04:43:38;61.25;;;28.92;;
57241;SDS011;43095;53.302;5.786;2023-02-23T04:46:47;59.42;;;28.02;;
57241;SDS011;43095;53.302;5.786;2023-02-23T04:49:47;68.00;;;30.98;;
57241;SDS011;43095;53.302;5.786;2023-02-23T04:52:26;70.55;;;34.08;;
57241;SDS011;43095;53.302;5.786;2023-02-23T04:55:20;62.17;;;31.02;;
57241;SDS011;43095;53.302;5.786;2023-02-23T04:58:13;66.97;;;34.08;;
57241;SDS011;43095;53.302;5.786;2023-02-23T05:01:13;69.32;;;32.17;;
57241;SDS011;43095;53.302;5.786;2023-02-23T05:04:19;67.75;;;33.05;;
57241;SDS011;43095;53.302;5.786;2023-02-23T05:10:41;60.58;;;32.45;;
57241;SDS011;43095;53.302;5.786;2023-02-23T05:13:23;65.82;;;33.33;;
57241;SDS011;43095;53.302;5.786;2023-02-23T05:16:16;76.75;;;35.22;;
57241;SDS011;43095;53.302;5.786;2023-02-23T05:18:52;63.15;;;33.55;;
57241;SDS011;43095;53.302;5.786;2023-02-23T05:21:34;64.35;;;32.35;;
57241;SDS011;43095;53.302;5.786;2023-02-23T05:24:22;67.35;;;32.88;;
57241;SDS011;43095;53.302;5.786;2023-02-23T05:27:15;61.15;;;31.75;;
57241;SDS011;43095;53.302;5.786;2023-02-23T05:29:46;67.07;;;32.38;;
57241;SDS011;43095;53.302;5.786;2023-02-23T05:32:40;59.10;;;31.38;;
57241;SDS011;43095;53.302;5.786;2023-02-23T05:35:20;63.42;;;31.90;;
57241;SDS011;43095;53.302;5.786;2023-02-23T05:38:02;63.05;;;32.30;;
57241;SDS011;43095;53.302;5.786;2023-02-23T05:40:49;61.05;;;30.27;;
57241;SDS011;43095;53.302;5.786;2023-02-23T05:43:25;57.70;;;31.63;;
57241;SDS011;43095;53.302;5.786;2023-02-23T05:46:41;59.67;;;30.48;;
57241;SDS011;43095;53.302;5.786;2023-02-23T05:49:32;64.40;;;32.78;;
57241;SDS011;43095;53.302;5.786;2023-02-23T05:52:16;66.03;;;31.17;;
57241;SDS011;43095;53.302;5.786;2023-02-23T05:55:04;60.45;;;30.75;;
57241;SDS011;43095;53.302;5.786;2023-02-23T05:57:50;64.45;;;31.75;;
57241;SDS011;43095;53.302;5.786;2023-02-23T06:00:21;61.97;;;32.10;;
57241;SDS011;43095;53.302;5.786;2023-02-23T06:03:24;64.38;;;31.08;;
57241;SDS011;43095;53.302;5.786;2023-02-23T06:06:46;59.92;;;29.92;;
57241;SDS011;43095;53.302;5.786;2023-02-23T06:09:25;60.63;;;31.00;;
57241;SDS011;43095;53.302;5.786;2023-02-23T06:12:19;60.63;;;30.88;;
57241;SDS011;43095;53.302;5.786;2023-02-23T06:15:02;55.85;;;28.20;;
57241;SDS011;43095;53.302;5.786;2023-02-23T06:17:50;56.67;;;28.10;;
57241;SDS011;43095;53.302;5.786;2023-02-23T06:20:22;58.53;;;28.55;;
57241;SDS011;43095;53.302;5.786;2023-02-23T06:23:13;57.13;;;27.30;;
57241;SDS011;43095;53.302;5.786;2023-02-23T06:26:18;56.80;;;27.77;;
57241;SDS011;43095;53.302;5.786;2023-02-23T06:29:00;53.50;;;27.30;;
57241;SDS011;43095;53.302;5.786;2023-02-23T06:31:44;55.53;;;27.67;;
57241;SDS011;43095;53.302;5.786;2023-02-23T06:34:29;56.85;;;28.67;;
57241;SDS011;43095;53.302;5.786;2023-02-23T06:37:01;56.45;;;28.33;;
57241;SDS011;43095;53.302;5.786;2023-02-23T06:42:29;55.67;;;28.25;;
57241;SDS011;43095;53.302;5.786;2023-02-23T06:45:22;57.38;;;29.25;;
57241;SDS011;43095;53.302;5.786;2023-02-23T06:48:02;56.63;;;26.88;;
57241;SDS011;43095;53.302;5.786;2023-02-23T06:50:57;56.95;;;27.17;;
57241;SDS011;43095;53.302;5.786;2023-02-23T06:54:05;52.35;;;26.42;;
57241;SDS011;43095;53.302;5.786;2023-02-23T06:56:38;53.95;;;27.52;;
57241;SDS011;43095;53.302;5.786;2023-02-23T06:59:50;55.30;;;26.73;;
57241;SDS011;43095;53.302;5.786;2023-02-23T07:02:21;49.22;;;25.52;;
57241;SDS011;43095;53.302;5.786;2023-02-23T07:05:12;55.15;;;27.45;;
57241;SDS011;43095;53.302;5.786;2023-02-23T07:08:33;49.72;;;25.75;;
57241;SDS011;43095;53.302;5.786;2023-02-23T07:11:15;52.42;;;27.27;;
57241;SDS011;43095;53.302;5.786;2023-02-23T07:14:02;73.38;;;38.25;;
57241;SDS011;43095;53.302;5.786;2023-02-23T07:17:15;55.95;;;28.83;;
57241;SDS011;43095;53.302;5.786;2023-02-23T07:20:02;52.13;;;26.42;;
57241;SDS011;43095;53.302;5.786;2023-02-23T07:22:50;55.28;;;26.33;;
57241;SDS011;43095;53.302;5.786;2023-02-23T07:29:01;55.75;;;27.63;;
57241;SDS011;43095;53.302;5.786;2023-02-23T07:32:04;61.70;;;28.98;;
57241;SDS011;43095;53.302;5.786;2023-02-23T07:34:53;54.75;;;26.27;;
57241;SDS011;43095;53.302;5.786;2023-02-23T07:37:27;54.55;;;28.05;;
57241;SDS011;43095;53.302;5.786;2023-02-23T07:40:34;53.40;;;28.00;;
57241;SDS011;43095;53.302;5.786;2023-02-23T07:43:06;51.08;;;25.90;;
57241;SDS011;43095;53.302;5.786;2023-02-23T07:45:50;61.88;;;29.58;;
57241;SDS011;43095;53.302;5.786;2023-02-23T07:49:11;61.72;;;29.10;;
57241;SDS011;43095;53.302;5.786;2023-02-23T07:51:52;58.70;;;27.60;;
57241;SDS011;43095;53.302;5.786;2023-02-23T07:55:17;59.13;;;28.80;;
57241;SDS011;43095;53.302;5.786;2023-02-23T07:58:16;56.40;;;26.85;;
57241;SDS011;43095;53.302;5.786;2023-02-23T08:01:47;60.30;;;27.23;;
57241;SDS011;43095;53.302;5.786;2023-02-23T08:04:18;60.05;;;27.33;;
57241;SDS011;43095;53.302;5.786;2023-02-23T08:06:50;60.92;;;27.98;;
57241;SDS011;43095;53.302;5.786;2023-02-23T08:09:42;61.72;;;27.90;;
57241;SDS011;43095;53.302;5.786;2023-02-23T08:12:59;66.03;;;26.95;;
57241;SDS011;43095;53.302;5.786;2023-02-23T08:16:11;74.60;;;28.48;;
57241;SDS011;43095;53.302;5.786;2023-02-23T08:18:47;58.50;;;25.15;;
57241;SDS011;43095;53.302;5.786;2023-02-23T08:21:38;71.45;;;29.45;;
57241;SDS011;43095;53.302;5.786;2023-02-23T08:25:04;61.05;;;25.67;;
57241;SDS011;43095;53.302;5.786;2023-02-23T08:27:43;64.32;;;27.55;;
57241;SDS011;43095;53.302;5.786;2023-02-23T08:30:13;68.47;;;29.90;;
57241;SDS011;43095;53.302;5.786;2023-02-23T08:33:37;72.57;;;28.88;;
57241;SDS011;43095;53.302;5.786;2023-02-23T08:36:21;76.50;;;32.58;;
57241;SDS011;43095;53.302;5.786;2023-02-23T08:39:23;74.28;;;31.25;;
57241;SDS011;43095;53.302;5.786;2023-02-23T08:42:15;83.78;;;33.50;;
57241;SDS011;43095;53.302;5.786;2023-02-23T08:45:34;81.03;;;33.05;;
57241;SDS011;43095;53.302;5.786;2023-02-23T08:51:20;78.05;;;32.67;;
57241;SDS011;43095;53.302;5.786;2023-02-23T08:53:57;82.97;;;34.85;;
57241;SDS011;43095;53.302;5.786;2023-02-23T09:00:06;95.07;;;38.60;;
57241;SDS011;43095;53.302;5.786;2023-02-23T09:03:20;86.65;;;35.47;;
57241;SDS011;43095;53.302;5.786;2023-02-23T09:06:18;82.72;;;35.03;;
57241;SDS011;43095;53.302;5.786;2023-02-23T09:09:03;86.43;;;35.00;;
57241;SDS011;43095;53.302;5.786;2023-02-23T09:11:35;87.30;;;36.67;;
57241;SDS011;43095;53.302;5.786;2023-02-23T09:14:21;85.90;;;35.08;;
57241;SDS011;43095;53.302;5.786;2023-02-23T09:17:06;96.30;;;39.17;;
57241;SDS011;43095;53.302;5.786;2023-02-23T09:19:52;97.78;;;39.17;;
57241;SDS011;43095;53.302;5.786;2023-02-23T09:22:53;91.75;;;38.75;;
57241;SDS011;43095;53.302;5.786;2023-02-23T09:25:27;100.55;;;38.15;;
57241;SDS011;43095;53.302;5.786;2023-02-23T09:28:34;101.93;;;40.90;;
57241;SDS011;43095;53.302;5.786;2023-02-23T09:34:58;114.38;;;43.15;;
57241;SDS011;43095;53.302;5.786;2023-02-23T09:37:46;109.15;;;41.75;;
57241;SDS011;43095;53.302;5.786;2023-02-23T09:44:15;132.43;;;43.97;;
57241;SDS011;43095;53.302;5.786;2023-02-23T09:51:01;122.85;;;45.35;;
57241;SDS011;43095;53.302;5.786;2023-02-23T09:54:15;123.00;;;45.20;;
57241;SDS011;43095;53.302;5.786;2023-02-23T09:56:47;145.68;;;49.60;;
57241;SDS011;43095;53.302;5.786;2023-02-23T09:59:37;139.77;;;48.53;;
57241;SDS011;43095;53.302;5.786;2023-02-23T10:02:44;152.77;;;53.05;;
57241;SDS011;43095;53.302;5.786;2023-02-23T10:13:12;157.77;;;53.42;;
57241;SDS011;43095;53.302;5.786;2023-02-23T10:19:31;171.70;;;56.83;;
57241;SDS011;43095;53.302;5.786;2023-02-23T10:22:31;166.57;;;56.88;;
57241;SDS011;43095;53.302;5.786;2023-02-23T10:28:00;165.02;;;54.40;;
57241;SDS011;43095;53.302;5.786;2023-02-23T10:30:58;162.27;;;54.55;;
57241;SDS011;43095;53.302;5.786;2023-02-23T10:33:33;166.45;;;55.42;;
57241;SDS011;43095;53.302;5.786;2023-02-23T10:36:28;152.45;;;52.42;;
57241;SDS011;43095;53.302;5.786;2023-02-23T10:39:01;143.65;;;47.67;;
57241;SDS011;43095;53.302;5.786;2023-02-23T10:41:29;146.00;;;47.28;;
57241;SDS011;43095;53.302;5.786;2023-02-23T10:43:57;144.57;;;50.25;;
57241;SDS011;43095;53.302;5.786;2023-02-23T10:46:41;141.13;;;47.13;;
57241;SDS011;43095;53.302;5.786;2023-02-23T10:49:15;139.25;;;48.15;;
57241;SDS011;43095;53.302;5.786;2023-02-23T10:51:44;142.15;;;48.55;;
57241;SDS011;43095;53.302;5.786;2023-02-23T10:56:59;138.32;;;47.95;;
57241;SDS011;43095;53.302;5.786;2023-02-23T10:59:26;142.27;;;49.55;;
57241;SDS011;43095;53.302;5.786;2023-02-23T11:01:54;145.13;;;48.15;;
57241;SDS011;43095;53.302;5.786;2023-02-23T11:04:29;158.82;;;48.15;;
57241;SDS011;43095;53.302;5.786;2023-02-23T11:07:07;186.13;;;53.55;;
57241;SDS011;43095;53.302;5.786;2023-02-23T11:09:36;155.80;;;43.40;;
57241;SDS011;43095;53.302;5.786;2023-02-23T11:14:51;92.55;;;31.70;;
57241;SDS011;43095;53.302;5.786;2023-02-23T11:17:40;116.97;;;33.60;;
57241;SDS011;43095;53.302;5.786;2023-02-23T11:20:52;87.25;;;25.92;;
57241;SDS011;43095;53.302;5.786;2023-02-23T11:23:08;42.03;;;8.52;;
57241;SDS011;43095;53.302;5.786;2023-02-23T11:25:41;20.33;;;3.75;;
57241;SDS011;43095;53.302;5.786;2023-02-23T11:28:15;29.90;;;3.72;;
57241;SDS011;43095;53.302;5.786;2023-02-23T11:30:47;20.73;;;2.85;;
57241;SDS011;43095;53.302;5.786;2023-02-23T11:33:15;16.10;;;3.00;;
57241;SDS011;43095;53.302;5.786;2023-02-23T11:35:44;15.80;;;3.20;;
57241;SDS011;43095;53.302;5.786;2023-02-23T11:38:22;27.40;;;4.15;;
57241;SDS011;43095;53.302;5.786;2023-02-23T11:40:57;22.80;;;3.75;;
57241;SDS011;43095;53.302;5.786;2023-02-23T11:43:24;26.40;;;3.80;;
57241;SDS011;43095;53.302;5.786;2023-02-23T11:45:53;31.42;;;4.43;;
57241;SDS011;43095;53.302;5.786;2023-02-23T11:48:37;32.10;;;4.30;;
57241;SDS011;43095;53.302;5.786;2023-02-23T11:51:08;39.15;;;5.60;;
57241;SDS011;43095;53.302;5.786;2023-02-23T11:53:38;36.80;;;5.25;;
57241;SDS011;43095;53.302;5.786;2023-02-23T11:56:06;46.50;;;5.68;;
57241;SDS011;43095;53.302;5.786;2023-02-23T11:58:48;45.30;;;5.78;;
57241;SDS011;43095;53.302;5.786;2023-02-23T12:01:19;44.22;;;5.68;;
57241;SDS011;43095;53.302;5.786;2023-02-23T12:03:53;57.70;;;9.07;;
57241;SDS011;43095;53.302;5.786;2023-02-23T12:06:38;62.05;;;7.95;;
57241;SDS011;43095;53.302;5.786;2023-02-23T12:09:26;58.97;;;8.50;;
57241;SDS011;43095;53.302;5.786;2023-02-23T12:12:05;46.00;;;7.63;;
57241;SDS011;43095;53.302;5.786;2023-02-23T12:14:40;46.83;;;8.48;;
57241;SDS011;43095;53.302;5.786;2023-02-23T12:17:15;59.65;;;8.55;;
57241;SDS011;43095;53.302;5.786;2023-02-23T12:19:48;45.50;;;8.00;;
57241;SDS011;43095;53.302;5.786;2023-02-23T12:22:18;44.17;;;7.50;;
57241;SDS011;43095;53.302;5.786;2023-02-23T12:24:48;52.72;;;9.23;;
57241;SDS011;43095;53.302;5.786;2023-02-23T12:27:20;44.72;;;6.93;;
57241;SDS011;43095;53.302;5.786;2023-02-23T12:40:46;49.28;;;7.88;;
57241;SDS011;43095;53.302;5.786;2023-02-23T12:43:47;68.47;;;8.63;;
57241;SDS011;43095;53.302;5.786;2023-02-23T12:46:20;41.83;;;5.60;;
57241;SDS011;43095;53.302;5.786;2023-02-23T12:51:38;50.65;;;7.57;;
57241;SDS011;43095;53.302;5.786;2023-02-23T12:54:11;45.92;;;6.40;;
57241;SDS011;43095;53.302;5.786;2023-02-23T12:56:55;61.30;;;9.40;;
57241;SDS011;43095;53.302;5.786;2023-02-23T13:02:17;49.00;;;6.68;;
57241;SDS011;43095;53.302;5.786;2023-02-23T13:05:04;50.10;;;8.32;;
57241;SDS011;43095;53.302;5.786;2023-02-23T13:10:50;46.55;;;7.78;;
57241;SDS011;43095;53.302;5.786;2023-02-23T13:13:23;47.97;;;7.78;;
57241;SDS011;43095;53.302;5.786;2023-02-23T13:18:58;57.47;;;9.20;;
57241;SDS011;43095;53.302;5.786;2023-02-23T13:24:10;59.53;;;8.15;;
57241;SDS011;43095;53.302;5.786;2023-02-23T13:26:46;64.30;;;9.32;;
57241;SDS011;43095;53.302;5.786;2023-02-23T13:29:41;64.28;;;10.32;;
57241;SDS011;43095;53.302;5.786;2023-02-23T13:32:23;51.13;;;9.32;;
57241;SDS011;43095;53.302;5.786;2023-02-23T13:35:01;57.92;;;8.55;;
57241;SDS011;43095;53.302;5.786;2023-02-23T13:41:41;45.85;;;7.40;;
57241;SDS011;43095;53.302;5.786;2023-02-23T13:51:34;50.92;;;7.57;;
57241;SDS011;43095;53.302;5.786;2023-02-23T13:57:31;49.75;;;8.82;;
57241;SDS011;43095;53.302;5.786;2023-02-23T14:00:22;46.97;;;7.47;;
57241;SDS011;43095;53.302;5.786;2023-02-23T14:02:59;47.00;;;6.75;;
57241;SDS011;43095;53.302;5.786;2023-02-23T14:06:12;43.72;;;5.97;;
57241;SDS011;43095;53.302;5.786;2023-02-23T14:09:27;42.20;;;7.28;;
57241;SDS011;43095;53.302;5.786;2023-02-23T14:23:28;28.98;;;5.30;;
57241;SDS011;43095;53.302;5.786;2023-02-23T14:32:29;36.95;;;5.53;;
57241;SDS011;43095;53.302;5.786;2023-02-23T14:38:37;30.80;;;5.10;;
57241;SDS011;43095;53.302;5.786;2023-02-23T14:41:20;30.60;;;4.75;;
57241;SDS011;43095;53.302;5.786;2023-02-23T14:47:02;32.05;;;5.18;;
57241;SDS011;43095;53.302;5.786;2023-02-23T14:49:36;29.50;;;4.28;;
57241;SDS011;43095;53.302;5.786;2023-02-23T14:58:02;25.52;;;5.45;;
57241;SDS011;43095;53.302;5.786;2023-02-23T15:00:32;25.27;;;5.32;;
57241;SDS011;43095;53.302;5.786;2023-02-23T15:03:33;25.77;;;4.60;;
57241;SDS011;43095;53.302;5.786;2023-02-23T15:06:19;19.83;;;4.30;;
57241;SDS011;43095;53.302;5.786;2023-02-23T15:09:31;22.60;;;4.22;;
57241;SDS011;43095;53.302;5.786;2023-02-23T15:12:13;25.35;;;4.45;;
57241;SDS011;43095;53.302;5.786;2023-02-23T15:14:45;27.30;;;4.35;;
57241;SDS011;43095;53.302;5.786;2023-02-23T15:17:18;29.08;;;4.97;;
57241;SDS011;43095;53.302;5.786;2023-02-23T15:20:12;19.15;;;3.20;;
57241;SDS011;43095;53.302;5.786;2023-02-23T15:22:54;24.42;;;3.35;;
57241;SDS011;43095;53.302;5.786;2023-02-23T15:25:35;25.25;;;3.70;;
57241;SDS011;43095;53.302;5.786;2023-02-23T15:28:46;20.50;;;4.50;;
57241;SDS011;43095;53.302;5.786;2023-02-23T15:31:21;23.02;;;3.45;;
57241;SDS011;43095;53.302;5.786;2023-02-23T15:33:56;24.48;;;5.05;;
57241;SDS011;43095;53.302;5.786;2023-02-23T15:36:34;24.65;;;4.88;;
57241;SDS011;43095;53.302;5.786;2023-02-23T15:39:13;35.35;;;5.65;;
57241;SDS011;43095;53.302;5.786;2023-02-23T15:41:51;23.55;;;3.75;;
57241;SDS011;43095;53.302;5.786;2023-02-23T15:44:41;18.98;;;3.15;;
57241;SDS011;43095;53.302;5.786;2023-02-23T15:47:19;25.92;;;3.70;;
57241;SDS011;43095;53.302;5.786;2023-02-23T15:56:18;21.33;;;4.43;;
57241;SDS011;43095;53.302;5.786;2023-02-23T15:59:05;22.63;;;4.18;;
57241;SDS011;43095;53.302;5.786;2023-02-23T16:01:46;28.42;;;4.55;;
57241;SDS011;43095;53.302;5.786;2023-02-23T16:04:18;18.77;;;3.20;;
57241;SDS011;43095;53.302;5.786;2023-02-23T16:10:17;20.63;;;4.28;;
57241;SDS011;43095;53.302;5.786;2023-02-23T16:12:51;19.67;;;3.53;;
57241;SDS011;43095;53.302;5.786;2023-02-23T16:15:32;19.83;;;3.47;;
57241;SDS011;43095;53.302;5.786;2023-02-23T16:18:19;27.63;;;3.55;;
57241;SDS011;43095;53.302;5.786;2023-02-23T16:20:54;27.17;;;4.38;;
57241;SDS011;43095;53.302;5.786;2023-02-23T16:23:42;25.58;;;3.20;;
57241;SDS011;43095;53.302;5.786;2023-02-23T16:26:18;21.20;;;4.20;;
57241;SDS011;43095;53.302;5.786;2023-02-23T16:28:55;31.60;;;4.88;;
57241;SDS011;43095;53.302;5.786;2023-02-23T16:31:39;24.13;;;4.55;;
57241;SDS011;43095;53.302;5.786;2023-02-23T16:37:13;20.65;;;3.85;;
57241;SDS011;43095;53.302;5.786;2023-02-23T16:39:43;29.10;;;4.57;;
57241;SDS011;43095;53.302;5.786;2023-02-23T16:42:24;29.10;;;3.88;;
57241;SDS011;43095;53.302;5.786;2023-02-23T16:44:52;29.63;;;4.40;;
57241;SDS011;43095;53.302;5.786;2023-02-23T16:49:51;25.65;;;4.18;;
57241;SDS011;43095;53.302;5.786;2023-02-23T16:52:19;22.95;;;3.45;;
57241;SDS011;43095;53.302;5.786;2023-02-23T16:54:48;23.42;;;3.72;;
57241;SDS011;43095;53.302;5.786;2023-02-23T16:57:25;19.95;;;3.72;;
57241;SDS011;43095;53.302;5.786;2023-02-23T16:59:55;20.67;;;3.38;;
57241;SDS011;43095;53.302;5.786;2023-02-23T17:02:24;16.80;;;3.53;;
57241;SDS011;43095;53.302;5.786;2023-02-23T17:04:52;20.52;;;3.22;;
57241;SDS011;43095;53.302;5.786;2023-02-23T17:07:24;17.67;;;2.95;;
57241;SDS011;43095;53.302;5.786;2023-02-23T17:09:52;15.02;;;2.05;;
57241;SDS011;43095;53.302;5.786;2023-02-23T17:12:20;19.55;;;5.53;;
57241;SDS011;43095;53.302;5.786;2023-02-23T17:14:47;18.15;;;4.20;;
57241;SDS011;43095;53.302;5.786;2023-02-23T17:17:16;14.75;;;2.80;;
57241;SDS011;43095;53.302;5.786;2023-02-23T17:19:44;18.23;;;4.30;;
57241;SDS011;43095;53.302;5.786;2023-02-23T17:22:12;20.05;;;4.85;;
57241;SDS011;43095;53.302;5.786;2023-02-23T17:24:40;16.80;;;4.30;;
57241;SDS011;43095;53.302;5.786;2023-02-23T17:27:08;23.08;;;5.05;;
57241;SDS011;43095;53.302;5.786;2023-02-23T17:29:37;15.55;;;2.65;;
57241;SDS011;43095;53.302;5.786;2023-02-23T17:32:04;26.00;;;3.50;;
57241;SDS011;43095;53.302;5.786;2023-02-23T17:34:35;22.20;;;3.28;;
57241;SDS011;43095;53.302;5.786;2023-02-23T17:37:03;21.30;;;3.20;;
57241;SDS011;43095;53.302;5.786;2023-02-23T17:39:33;15.23;;;2.95;;
57241;SDS011;43095;53.302;5.786;2023-02-23T17:42:02;19.77;;;3.08;;
57241;SDS011;43095;53.302;5.786;2023-02-23T17:44:32;18.30;;;3.00;;
57241;SDS011;43095;53.302;5.786;2023-02-23T17:47:00;16.02;;;4.07;;
57241;SDS011;43095;53.302;5.786;2023-02-23T17:49:29;16.98;;;3.13;;
57241;SDS011;43095;53.302;5.786;2023-02-23T17:51:57;13.07;;;2.72;;
57241;SDS011;43095;53.302;5.786;2023-02-23T17:54:24;11.98;;;2.47;;
57241;SDS011;43095;53.302;5.786;2023-02-23T17:56:54;21.67;;;2.90;;
57241;SDS011;43095;53.302;5.786;2023-02-23T17:59:25;14.98;;;2.70;;
57241;SDS011;43095;53.302;5.786;2023-02-23T18:01:53;10.25;;;1.98;;
57241;SDS011;43095;53.302;5.786;2023-02-23T18:04:21;16.55;;;2.45;;
57241;SDS011;43095;53.302;5.786;2023-02-23T18:06:49;14.32;;;2.47;;
57241;SDS011;43095;53.302;5.786;2023-02-23T18:09:16;20.25;;;2.30;;
57241;SDS011;43095;53.302;5.786;2023-02-23T18:11:44;8.27;;;1.67;;
57241;SDS011;43095;53.302;5.786;2023-02-23T18:14:12;18.90;;;2.70;;
57241;SDS011;43095;53.302;5.786;2023-02-23T18:16:40;10.30;;;2.30;;
57241;SDS011;43095;53.302;5.786;2023-02-23T18:19:08;14.60;;;2.20;;
57241;SDS011;43095;53.302;5.786;2023-02-23T18:21:35;16.40;;;2.88;;
57241;SDS011;43095;53.302;5.786;2023-02-23T18:24:07;9.27;;;2.63;;
57241;SDS011;43095;53.302;5.786;2023-02-23T18:26:35;13.85;;;1.83;;
57241;SDS011;43095;53.302;5.786;2023-02-23T18:29:03;24.20;;;3.08;;
57241;SDS011;43095;53.302;5.786;2023-02-23T18:31:33;20.60;;;3.47;;
57241;SDS011;43095;53.302;5.786;2023-02-23T18:34:01;21.75;;;2.60;;
57241;SDS011;43095;53.302;5.786;2023-02-23T18:36:30;15.88;;;2.38;;
57241;SDS011;43095;53.302;5.786;2023-02-23T18:39:02;11.30;;;3.08;;
57241;SDS011;43095;53.302;5.786;2023-02-23T18:41:31;8.63;;;2.20;;
57241;SDS011;43095;53.302;5.786;2023-02-23T18:43:59;15.00;;;3.80;;
57241;SDS011;43095;53.302;5.786;2023-02-23T18:46:28;10.25;;;2.20;;
57241;SDS011;43095;53.302;5.786;2023-02-23T18:49:05;16.38;;;3.38;;
57241;SDS011;43095;53.302;5.786;2023-02-23T18:51:46;14.02;;;2.40;;
57241;SDS011;43095;53.302;5.786;2023-02-23T18:54:14;10.82;;;2.38;;
57241;SDS011;43095;53.302;5.786;2023-02-23T18:56:45;19.08;;;2.53;;
57241;SDS011;43095;53.302;5.786;2023-02-23T18:59:13;15.15;;;2.30;;
57241;SDS011;43095;53.302;5.786;2023-02-23T19:01:41;12.13;;;2.10;;
57241;SDS011;43095;53.302;5.786;2023-02-23T19:04:12;9.82;;;1.80;;
57241;SDS011;43095;53.302;5.786;2023-02-23T19:06:42;14.68;;;2.72;;
57241;SDS011;43095;53.302;5.786;2023-02-23T19:09:14;9.45;;;2.22;;
57241;SDS011;43095;53.302;5.786;2023-02-23T19:11:47;10.68;;;2.10;;
57241;SDS011;43095;53.302;5.786;2023-02-23T19:14:17;12.15;;;2.42;;
57241;SDS011;43095;53.302;5.786;2023-02-23T19:17:14;9.95;;;2.00;;
57241;SDS011;43095;53.302;5.786;2023-02-23T19:19:56;9.60;;;2.85;;
57241;SDS011;43095;53.302;5.786;2023-02-23T19:22:29;14.80;;;2.40;;
57241;SDS011;43095;53.302;5.786;2023-02-23T19:25:00;9.85;;;1.83;;
57241;SDS011;43095;53.302;5.786;2023-02-23T19:27:30;14.60;;;1.77;;
57241;SDS011;43095;53.302;5.786;2023-02-23T19:30:00;7.22;;;1.50;;
57241;SDS011;43095;53.302;5.786;2023-02-23T19:32:28;10.68;;;1.60;;
57241;SDS011;43095;53.302;5.786;2023-02-23T19:34:56;14.43;;;1.98;;
57241;SDS011;43095;53.302;5.786;2023-02-23T19:37:30;11.40;;;1.45;;
57241;SDS011;43095;53.302;5.786;2023-02-23T19:39:59;8.45;;;1.17;;
57241;SDS011;43095;53.302;5.786;2023-02-23T19:42:29;12.23;;;2.35;;